Time,TemperatureF,DewpointF,PressureIn,WindDirection,WindDirectionDegrees,WindSpeedMPH,WindSpeedGustMPH,Humidity,HourlyPrecipIn,Conditions,Clouds,dailyrainin,SoftwareType,DateUTC
2013-01-22 00:00:00,-5.9,-15.2,30.25,NNW,336,2.0,13.0,63,0.00,CLR,,0.00,WeatherDisplay:10.37,2013-01-22 06:00:00,
2013-01-22 00:05:00,-5.7,-14.7,30.25,NNW,336,2.0,6.0,64,0.00,CLR,,0.00,WeatherDisplay:10.37,2013-01-22 06:05:00,
2013-01-22 00:10:00,-5.9,-15.2,30.25,NNW,327,3.0,12.0,63,0.00,CLR,,0.00,WeatherDisplay:10.37,2013-01-22 06:10:00,
2013-01-22 00:15:00,-5.9,-15.2,30.24,NW,321,5.0,13.0,63,0.00,CLR,,0.00,WeatherDisplay:10.37,2013-01-22 06:15:00,
2013-01-22 00:20:00,-5.9,-15.9,30.24,NW,310,6.0,10.0,61,0.00,CLR,,0.00,WeatherDisplay:10.37,2013-01-22 06:20:00,
2013-01-22 00:25:00,-5.9,-15.6,30.24,NW,316,5.0,9.0,62,0.00,CLR,,0.00,WeatherDisplay:10.37,2013-01-22 06:25:00,
2013-01-22 00:30:00,-6.1,-16.1,30.24,NW,317,5.0,12.0,61,0.00,CLR,,0.00,WeatherDisplay:10.37,2013-01-22 06:30:00,
2013-01-22 00:35:00,-6.1,-16.4,30.24,NW,316,3.0,13.0,60,0.00,CLR,,0.00,WeatherDisplay:10.37,2013-01-22 06:35:00,
2013-01-22 00:40:00,-6.2,-16.1,30.24,NW,326,5.0,12.0,61,0.00,CLR,,0.00,WeatherDisplay:10.37,2013-01-22 06:40:00,
2013-01-22 00:45:00,-6.3,-16.3,30.24,NW,318,5.0,9.0,61,0.00,CLR,,0.00,WeatherDisplay:10.37,2013-01-22 06:45:00,
2013-01-22 00:50:00,-6.3,-16.3,30.24,NW,310,5.0,8.0,61,0.00,CLR,,0.00,WeatherDisplay:10.37,2013-01-22 06:50:00,
2013-01-22 00:55:00,-6.3,-16.6,30.24,NW,312,6.0,12.0,60,0.00,CLR,,0.00,WeatherDisplay:10.37,2013-01-22 06:55:00,
2013-01-22 01:00:00,-6.3,-16.6,30.25,NW,307,6.0,13.0,60,0.00,CLR,,0.00,WeatherDisplay:10.37,2013-01-22 07:00:00,
2013-01-22 01:04:00,-6.3,-16.3,30.25,NW,314,3.0,10.0,61,0.00,CLR,,0.00,WeatherDisplay:10.37,2013-01-22 07:04:00,
2013-01-22 01:10:00,-6.3,-15.9,30.25,NW,313,6.0,12.0,62,0.00,CLR,,0.00,WeatherDisplay:10.37,2013-01-22 07:10:00,
2013-01-22 01:15:00,-6.3,-16.6,30.25,NW,305,6.0,14.0,60,0.00,CLR,,0.00,WeatherDisplay:10.37,2013-01-22 07:15:00,
2013-01-22 01:20:00,-6.3,-16.6,30.25,NW,305,8.0,12.0,60,0.00,CLR,,0.00,WeatherDisplay:10.37,2013-01-22 07:20:00,
2013-01-22 01:24:00,-6.5,-16.5,30.25,NW,317,5.0,10.0,61,0.00,CLR,,0.00,WeatherDisplay:10.37,2013-01-22 07:24:00,
2013-01-22 01:29:00,-6.3,-16.0,30.25,NW,312,7.0,12.0,62,0.00,CLR,,0.00,WeatherDisplay:10.37,2013-01-22 07:29:00,
2013-01-22 01:35:00,-6.5,-16.1,30.25,WNW,301,6.0,12.0,62,0.00,CLR,,0.00,WeatherDisplay:10.37,2013-01-22 07:35:00,
2013-01-22 01:39:00,-6.5,-16.5,30.25,WNW,296,6.0,12.0,61,0.00,CLR,,0.00,WeatherDisplay:10.37,2013-01-22 07:39:00,
2013-01-22 01:45:00,-6.5,-16.1,30.26,NW,304,6.0,12.0,62,0.00,CLR,,0.00,WeatherDisplay:10.37,2013-01-22 07:45:00,
2013-01-22 01:50:00,-6.5,-16.5,30.26,NW,311,5.0,12.0,61,0.00,CLR,,0.00,WeatherDisplay:10.37,2013-01-22 07:50:00,
2013-01-22 01:54:00,-6.5,-16.1,30.26,NW,313,5.0,12.0,62,0.00,CLR,,0.00,WeatherDisplay:10.37,2013-01-22 07:54:00,
2013-01-22 01:59:00,-6.5,-16.1,30.26,NW,308,6.0,9.0,62,0.00,CLR,,0.00,WeatherDisplay:10.37,2013-01-22 07:59:00,
2013-01-22 02:04:00,-6.8,-16.4,30.26,WNW,300,5.0,10.0,62,0.00,CLR,,0.00,WeatherDisplay:10.37,2013-01-22 08:04:00,
2013-01-22 02:09:00,-6.5,-15.8,30.26,WNW,301,7.0,12.0,63,0.00,CLR,,0.00,WeatherDisplay:10.37,2013-01-22 08:09:00,
2013-01-22 02:14:00,-6.8,-16.4,30.27,NW,312,5.0,14.0,62,0.00,CLR,,0.00,WeatherDisplay:10.37,2013-01-22 08:14:00,
2013-01-22 02:19:00,-6.8,-16.4,30.27,NW,306,7.0,14.0,62,0.00,CLR,,0.00,WeatherDisplay:10.37,2013-01-22 08:19:00,
2013-01-22 02:24:00,-6.8,-16.4,30.27,NW,305,5.0,10.0,62,0.00,CLR,,0.00,WeatherDisplay:10.37,2013-01-22 08:24:00,
2013-01-22 02:29:00,-6.7,-15.7,30.27,NW,307,5.0,7.0,64,0.00,CLR,,0.00,WeatherDisplay:10.37,2013-01-22 08:29:00,
2013-01-22 02:34:00,-6.8,-16.1,30.27,WNW,296,5.0,10.0,63,0.00,CLR,,0.00,WeatherDisplay:10.37,2013-01-22 08:34:00,
2013-01-22 02:39:00,-6.8,-16.1,30.27,NW,307,6.0,8.0,63,0.00,CLR,,0.00,WeatherDisplay:10.37,2013-01-22 08:39:00,
2013-01-22 02:44:00,-6.8,-16.1,30.27,NW,309,6.0,12.0,63,0.00,CLR,,0.00,WeatherDisplay:10.37,2013-01-22 08:44:00,
2013-01-22 02:49:00,-6.8,-15.8,30.27,NW,304,3.0,8.0,64,0.00,CLR,,0.00,WeatherDisplay:10.37,2013-01-22 08:49:00,
2013-01-22 02:54:00,-6.8,-16.1,30.27,NW,308,5.0,9.0,63,0.00,CLR,,0.00,WeatherDisplay:10.37,2013-01-22 08:54:00,
2013-01-22 02:59:00,-6.8,-15.8,30.28,WNW,303,3.0,8.0,64,0.00,CLR,,0.00,WeatherDisplay:10.37,2013-01-22 08:59:00,
2013-01-22 03:04:00,-6.8,-15.8,30.28,WNW,296,7.0,10.0,64,0.00,CLR,,0.00,WeatherDisplay:10.37,2013-01-22 09:04:00,
2013-01-22 03:09:00,-6.8,-15.8,30.28,WNW,298,6.0,8.0,64,0.00,CLR,,0.00,WeatherDisplay:10.37,2013-01-22 09:09:00,
2013-01-22 03:14:00,-6.8,-15.8,30.28,WNW,300,5.0,9.0,64,0.00,CLR,,0.00,WeatherDisplay:10.37,2013-01-22 09:14:00,
2013-01-22 03:19:00,-6.8,-15.5,30.28,WNW,298,6.0,12.0,65,0.00,CLR,,0.00,WeatherDisplay:10.37,2013-01-22 09:19:00,
2013-01-22 03:24:00,-6.8,-15.8,30.28,WNW,297,7.0,14.0,64,0.00,CLR,,0.00,WeatherDisplay:10.37,2013-01-22 09:24:00,
2013-01-22 03:29:00,-6.8,-15.5,30.28,WNW,295,6.0,10.0,65,0.00,CLR,,0.00,WeatherDisplay:10.37,2013-01-22 09:29:00,
2013-01-22 03:34:00,-6.8,-15.5,30.28,WNW,298,6.0,13.0,65,0.00,CLR,,0.00,WeatherDisplay:10.37,2013-01-22 09:34:00,
2013-01-22 03:39:00,-6.8,-15.8,30.28,WNW,296,5.0,13.0,64,0.00,CLR,,0.00,WeatherDisplay:10.37,2013-01-22 09:39:00,
2013-01-22 03:44:00,-6.8,-15.8,30.28,WNW,300,5.0,10.0,64,0.00,CLR,,0.00,WeatherDisplay:10.37,2013-01-22 09:44:00,
2013-01-22 03:49:00,-6.8,-15.8,30.28,NW,314,6.0,10.0,64,0.00,CLR,,0.00,WeatherDisplay:10.37,2013-01-22 09:49:00,
2013-01-22 03:54:00,-6.9,-15.9,30.28,NW,314,5.0,12.0,64,0.00,CLR,,0.00,WeatherDisplay:10.37,2013-01-22 09:54:00,
2013-01-22 03:59:00,-6.9,-15.9,30.28,NW,312,3.0,9.0,64,0.00,CLR,,0.00,WeatherDisplay:10.37,2013-01-22 09:59:00,
2013-01-22 04:04:00,-7.0,-16.0,30.28,NW,319,6.0,14.0,64,0.00,CLR,,0.00,WeatherDisplay:10.37,2013-01-22 10:04:00,
2013-01-22 04:09:00,-7.0,-16.0,30.28,NW,309,7.0,12.0,64,0.00,CLR,,0.00,WeatherDisplay:10.37,2013-01-22 10:09:00,
2013-01-22 04:14:00,-7.0,-16.3,30.28,NW,304,7.0,13.0,63,0.00,CLR,,0.00,WeatherDisplay:10.37,2013-01-22 10:14:00,
2013-01-22 04:19:00,-7.0,-16.3,30.27,NW,304,6.0,13.0,63,0.00,CLR,,0.00,WeatherDisplay:10.37,2013-01-22 10:19:00,
2013-01-22 04:24:00,-7.0,-16.0,30.27,NW,306,3.0,9.0,64,0.00,CLR,,0.00,WeatherDisplay:10.37,2013-01-22 10:24:00,
2013-01-22 04:29:00,-7.0,-16.0,30.27,NW,309,6.0,10.0,64,0.00,CLR,,0.00,WeatherDisplay:10.37,2013-01-22 10:29:00,
2013-01-22 04:34:00,-7.1,-16.1,30.27,NW,306,7.0,12.0,64,0.00,CLR,,0.00,WeatherDisplay:10.37,2013-01-22 10:34:00,
2013-01-22 04:39:00,-7.2,-16.5,30.27,WNW,303,7.0,15.0,63,0.00,CLR,,0.00,WeatherDisplay:10.37,2013-01-22 10:39:00,
2013-01-22 04:44:00,-7.0,-16.0,30.27,WNW,301,5.0,12.0,64,0.00,CLR,,0.00,WeatherDisplay:10.37,2013-01-22 10:44:00,
2013-01-22 04:49:00,-7.0,-16.0,30.27,NW,306,5.0,9.0,64,0.00,CLR,,0.00,WeatherDisplay:10.37,2013-01-22 10:49:00,
2013-01-22 04:54:00,-7.0,-16.0,30.27,NW,306,5.0,12.0,64,0.00,CLR,,0.00,WeatherDisplay:10.37,2013-01-22 10:54:00,
2013-01-22 05:00:00,-7.0,-16.0,30.27,WNW,303,3.0,9.0,64,0.00,CLR,,0.00,WeatherDisplay:10.37,2013-01-22 11:00:00,
2013-01-22 05:05:00,-7.0,-16.0,30.27,NW,311,5.0,10.0,64,0.00,CLR,,0.00,WeatherDisplay:10.37,2013-01-22 11:05:00,
2013-01-22 05:10:00,-7.0,-16.0,30.27,NW,314,6.0,10.0,64,0.00,CLR,,0.00,WeatherDisplay:10.37,2013-01-22 11:10:00,
2013-01-22 05:19:00,-7.0,-16.0,30.27,NW,305,2.0,6.0,64,0.00,CLR,,0.00,WeatherDisplay:10.37,2013-01-22 11:19:00,
2013-01-22 05:24:00,-7.0,-15.7,30.27,NW,310,2.0,6.0,65,0.00,CLR,,0.00,WeatherDisplay:10.37,2013-01-22 11:24:00,
2013-01-22 05:30:00,-7.0,-16.0,30.28,NW,323,3.0,7.0,64,0.00,CLR,,0.00,WeatherDisplay:10.37,2013-01-22 11:30:00,
2013-01-22 05:39:00,-7.0,-16.0,30.28,NW,319,5.0,8.0,64,0.00,CLR,,0.00,WeatherDisplay:10.37,2013-01-22 11:39:00,
2013-01-22 05:44:00,-7.0,-16.0,30.28,NW,310,3.0,7.0,64,0.00,CLR,,0.00,WeatherDisplay:10.37,2013-01-22 11:44:00,
2013-01-22 05:49:00,-7.0,-16.0,30.28,NW,307,2.0,7.0,64,0.00,CLR,,0.00,WeatherDisplay:10.37,2013-01-22 11:49:00,
2013-01-22 05:55:00,-7.0,-16.0,30.28,NW,306,5.0,9.0,64,0.00,CLR,,0.00,WeatherDisplay:10.37,2013-01-22 11:55:00,
2013-01-22 06:05:00,-7.0,-16.0,30.28,NW,317,2.0,7.0,64,0.00,CLR,,0.00,WeatherDisplay:10.37,2013-01-22 12:05:00,
2013-01-22 06:15:00,-6.8,-15.8,30.29,NW,316,2.0,7.0,64,0.00,CLR,,0.00,WeatherDisplay:10.37,2013-01-22 12:15:00,
2013-01-22 06:24:00,-7.0,-16.0,30.29,NW,314,2.0,6.0,64,0.00,CLR,,0.00,WeatherDisplay:10.37,2013-01-22 12:24:00,
2013-01-22 06:29:00,-7.0,-16.0,30.29,NW,313,2.0,8.0,64,0.00,CLR,,0.00,WeatherDisplay:10.37,2013-01-22 12:29:00,
2013-01-22 06:34:00,-7.0,-15.7,30.29,NW,311,2.0,4.0,65,0.00,CLR,,0.00,WeatherDisplay:10.37,2013-01-22 12:34:00,
2013-01-22 06:39:00,-7.0,-16.0,30.29,NW,314,2.0,6.0,64,0.00,CLR,,0.00,WeatherDisplay:10.37,2013-01-22 12:39:00,
2013-01-22 06:44:00,-7.0,-15.7,30.29,NW,307,5.0,8.0,65,0.00,CLR,,0.00,WeatherDisplay:10.37,2013-01-22 12:44:00,
2013-01-22 06:50:00,-7.0,-15.7,30.29,NW,306,2.0,8.0,65,0.00,CLR,,0.00,WeatherDisplay:10.37,2013-01-22 12:50:00,
2013-01-22 06:54:00,-7.0,-15.7,30.29,NW,309,3.0,6.0,65,0.00,CLR,,0.00,WeatherDisplay:10.37,2013-01-22 12:54:00,
2013-01-22 06:59:00,-7.0,-15.7,30.30,NW,308,6.0,8.0,65,0.00,CLR,,0.00,WeatherDisplay:10.37,2013-01-22 12:59:00,
2013-01-22 07:05:00,-7.0,-15.7,30.30,NW,308,3.0,7.0,65,0.00,CLR,,0.00,WeatherDisplay:10.37,2013-01-22 13:05:00,
2013-01-22 07:10:00,-7.0,-15.7,30.30,WNW,302,2.0,9.0,65,0.00,CLR,,0.00,WeatherDisplay:10.37,2013-01-22 13:10:00,
2013-01-22 07:15:00,-7.0,-15.4,30.30,NW,304,2.0,4.0,66,0.00,CLR,,0.00,WeatherDisplay:10.37,2013-01-22 13:15:00,
2013-01-22 07:20:00,-6.8,-15.2,30.30,WNW,302,3.0,8.0,66,0.00,CLR,,0.00,WeatherDisplay:10.37,2013-01-22 13:20:00,
2013-01-22 07:25:00,-7.0,-15.4,30.30,WNW,303,3.0,7.0,66,0.00,CLR,,0.00,WeatherDisplay:10.37,2013-01-22 13:25:00,
2013-01-22 07:30:00,-7.0,-15.4,30.30,NW,305,2.0,5.0,66,0.00,CLR,,0.00,WeatherDisplay:10.37,2013-01-22 13:30:00,
2013-01-22 07:34:00,-6.9,-15.3,30.30,WNW,301,2.0,7.0,66,0.00,CLR,,0.00,WeatherDisplay:10.37,2013-01-22 13:34:00,
2013-01-22 07:40:00,-7.0,-15.4,30.30,NW,304,2.0,7.0,66,0.00,CLR,,0.00,WeatherDisplay:10.37,2013-01-22 13:40:00,
2013-01-22 07:45:00,-7.0,-15.7,30.30,WNW,302,2.0,8.0,65,0.00,CLR,,0.00,WeatherDisplay:10.37,2013-01-22 13:45:00,
2013-01-22 07:50:00,-6.9,-15.6,30.30,WNW,294,5.0,7.0,65,0.00,CLR,,0.00,WeatherDisplay:10.37,2013-01-22 13:50:00,
2013-01-22 07:55:00,-7.0,-15.7,30.30,NW,306,5.0,8.0,65,0.00,CLR,,0.00,WeatherDisplay:10.37,2013-01-22 13:55:00,
2013-01-22 08:00:00,-6.8,-15.2,30.31,NW,308,3.0,7.0,66,0.00,CLR,,0.00,WeatherDisplay:10.37,2013-01-22 14:00:00,
2013-01-22 08:05:00,-6.8,-15.2,30.31,NW,310,3.0,7.0,66,0.00,CLR,,0.00,WeatherDisplay:10.37,2013-01-22 14:05:00,
2013-01-22 08:10:00,-6.8,-15.2,30.31,NW,308,3.0,7.0,66,0.00,CLR,,0.00,WeatherDisplay:10.37,2013-01-22 14:10:00,
2013-01-22 08:15:00,-6.8,-15.2,30.31,NW,306,3.0,8.0,66,0.00,CLR,,0.00,WeatherDisplay:10.37,2013-01-22 14:15:00,
2013-01-22 08:20:00,-6.8,-14.9,30.31,NW,305,3.0,7.0,67,0.00,CLR,,0.00,WeatherDisplay:10.37,2013-01-22 14:20:00,
2013-01-22 08:25:00,-6.8,-15.2,30.31,WNW,295,5.0,8.0,66,0.00,CLR,,0.00,WeatherDisplay:10.37,2013-01-22 14:25:00,
2013-01-22 08:30:00,-6.6,-15.0,30.32,WNW,297,3.0,9.0,66,0.00,CLR,,0.00,WeatherDisplay:10.37,2013-01-22 14:30:00,
2013-01-22 08:35:00,-6.5,-14.6,30.32,WNW,299,3.0,7.0,67,0.00,CLR,,0.00,WeatherDisplay:10.37,2013-01-22 14:35:00,
2013-01-22 08:40:00,-6.5,-14.9,30.32,WNW,295,7.0,9.0,66,0.00,CLR,,0.00,WeatherDisplay:10.37,2013-01-22 14:40:00,
2013-01-22 08:45:00,-6.7,-15.4,30.32,WNW,296,7.0,10.0,65,0.00,CLR,,0.00,WeatherDisplay:10.37,2013-01-22 14:45:00,
2013-01-22 08:50:00,-6.5,-15.2,30.32,WNW,298,7.0,12.0,65,0.00,CLR,,0.00,WeatherDisplay:10.37,2013-01-22 14:50:00,
2013-01-22 08:55:00,-6.5,-15.2,30.32,WNW,296,3.0,10.0,65,0.00,CLR,,0.00,WeatherDisplay:10.37,2013-01-22 14:55:00,
2013-01-22 09:00:00,-6.3,-14.7,30.32,WNW,299,6.0,8.0,66,0.00,CLR,,0.00,WeatherDisplay:10.37,2013-01-22 15:00:00,
2013-01-22 09:05:00,-6.1,-14.6,30.32,WNW,300,3.0,7.0,66,0.00,CLR,,0.00,WeatherDisplay:10.37,2013-01-22 15:05:00,
2013-01-22 09:10:00,-6.1,-14.5,30.32,WNW,294,3.0,8.0,66,0.00,CLR,,0.00,WeatherDisplay:10.37,2013-01-22 15:10:00,
2013-01-22 09:15:00,-6.0,-14.4,30.32,WNW,288,2.0,7.0,66,0.00,CLR,,0.00,WeatherDisplay:10.37,2013-01-22 15:15:00,
2013-01-22 09:20:00,-6.1,-14.5,30.32,WNW,294,5.0,9.0,66,0.00,CLR,,0.00,WeatherDisplay:10.37,2013-01-22 15:20:00,
2013-01-22 09:25:00,-5.9,-14.3,30.32,NW,304,5.0,9.0,66,0.00,CLR,,0.00,WeatherDisplay:10.37,2013-01-22 15:25:00,
2013-01-22 09:30:00,-5.9,-14.3,30.32,WNW,299,3.0,10.0,66,0.00,CLR,,0.00,WeatherDisplay:10.37,2013-01-22 15:30:00,
2013-01-22 09:35:00,-5.6,-14.0,30.32,WNW,298,3.0,7.0,66,0.00,CLR,,0.00,WeatherDisplay:10.37,2013-01-22 15:35:00,
2013-01-22 09:40:00,-5.6,-14.7,30.32,WNW,299,6.0,10.0,64,0.00,CLR,,0.00,WeatherDisplay:10.37,2013-01-22 15:40:00,
2013-01-22 09:45:00,-5.2,-14.3,30.32,WNW,296,5.0,8.0,64,0.00,CLR,,0.00,WeatherDisplay:10.37,2013-01-22 15:45:00,
2013-01-22 09:50:00,-5.0,-14.1,30.32,WNW,293,3.0,7.0,64,0.00,CLR,,0.00,WeatherDisplay:10.37,2013-01-22 15:50:00,
2013-01-22 10:00:00,-4.1,-13.2,30.32,West,268,5.0,8.0,64,0.00,CLR,,0.00,WeatherDisplay:10.37,2013-01-22 16:00:00,
2013-01-22 10:05:00,-3.9,-13.3,30.32,West,270,3.0,8.0,63,0.00,CLR,,0.00,WeatherDisplay:10.37,2013-01-22 16:05:00,
2013-01-22 10:10:00,-4.3,-13.7,30.32,WNW,288,3.0,10.0,63,0.00,CLR,,0.00,WeatherDisplay:10.37,2013-01-22 16:10:00,
2013-01-22 10:15:00,-4.3,-13.7,30.33,WNW,299,5.0,9.0,63,0.00,CLR,,0.00,WeatherDisplay:10.37,2013-01-22 16:15:00,
2013-01-22 10:20:00,-4.2,-13.3,30.33,WNW,293,2.0,9.0,64,0.00,CLR,,0.00,WeatherDisplay:10.37,2013-01-22 16:20:00,
2013-01-22 10:25:00,-3.9,-13.0,30.33,WNW,285,2.0,5.0,64,0.00,CLR,,0.00,WeatherDisplay:10.37,2013-01-22 16:25:00,
2013-01-22 10:30:00,-3.6,-12.8,30.32,West,273,3.0,7.0,64,0.00,CLR,,0.00,WeatherDisplay:10.37,2013-01-22 16:30:00,
2013-01-22 10:40:00,-3.8,-13.2,30.32,WNW,297,3.0,9.0,63,0.00,CLR,,0.00,WeatherDisplay:10.37,2013-01-22 16:40:00,
2013-01-22 10:45:00,-3.3,-12.5,30.32,WNW,289,2.0,7.0,64,0.00,CLR,,0.00,WeatherDisplay:10.37,2013-01-22 16:45:00,
2013-01-22 10:50:00,-3.3,-13.1,30.32,WNW,293,3.0,10.0,62,0.00,CLR,,0.00,WeatherDisplay:10.37,2013-01-22 16:50:00,
2013-01-22 11:00:00,-3.6,-13.4,30.32,WNW,289,3.0,10.0,62,0.00,CLR,,0.00,WeatherDisplay:10.37,2013-01-22 17:00:00,
2013-01-22 11:05:00,-2.6,-11.8,30.32,WNW,285,3.0,6.0,64,0.00,CLR,,0.00,WeatherDisplay:10.37,2013-01-22 17:05:00,
2013-01-22 11:15:00,-2.4,-12.2,30.32,WNW,283,3.0,8.0,62,0.00,CLR,,0.00,WeatherDisplay:10.37,2013-01-22 17:15:00,
2013-01-22 11:20:00,-1.8,-11.7,30.32,West,268,5.0,9.0,62,0.00,CLR,,0.00,WeatherDisplay:10.37,2013-01-22 17:20:00,
2013-01-22 11:25:00,-1.4,-11.3,30.32,West,264,3.0,7.0,62,0.00,CLR,,0.00,WeatherDisplay:10.37,2013-01-22 17:25:00,
2013-01-22 11:35:00,-1.4,-11.3,30.32,West,279,3.0,8.0,62,0.00,CLR,,0.00,WeatherDisplay:10.37,2013-01-22 17:35:00,
2013-01-22 11:40:00,-1.1,-11.7,30.32,West,267,3.0,12.0,60,0.00,CLR,,0.00,WeatherDisplay:10.37,2013-01-22 17:40:00,
2013-01-22 11:45:00,-1.1,-12.0,30.32,West,270,3.0,9.0,59,0.00,CLR,,0.00,WeatherDisplay:10.37,2013-01-22 17:45:00,
2013-01-22 11:50:00,-0.7,-10.6,30.32,West,274,3.0,7.0,62,0.00,CLR,,0.00,WeatherDisplay:10.37,2013-01-22 17:50:00,
2013-01-22 11:55:00,-0.4,-11.0,30.32,West,272,5.0,9.0,60,0.00,CLR,,0.00,WeatherDisplay:10.37,2013-01-22 17:55:00,
2013-01-22 12:00:00,-0.4,-11.3,30.32,West,274,3.0,8.0,59,0.00,CLR,,0.00,WeatherDisplay:10.37,2013-01-22 18:00:00,
2013-01-22 12:05:00,-0.4,-11.0,30.32,West,268,5.0,9.0,60,0.00,CLR,,0.00,WeatherDisplay:10.37,2013-01-22 18:05:00,
2013-01-22 12:10:00,0.1,-10.2,30.32,West,260,6.0,9.0,61,0.00,CLR,,0.00,WeatherDisplay:10.37,2013-01-22 18:10:00,
2013-01-22 12:15:00,0.4,-10.2,30.31,West,259,3.0,8.0,60,0.00,CLR,,0.00,WeatherDisplay:10.37,2013-01-22 18:15:00,
2013-01-22 12:25:00,0.2,-10.7,30.31,WNW,289,3.0,7.0,59,0.00,CLR,,0.00,WeatherDisplay:10.37,2013-01-22 18:25:00,
2013-01-22 12:35:00,0.1,-10.9,30.30,WNW,288,2.0,7.0,59,0.00,CLR,,0.00,WeatherDisplay:10.37,2013-01-22 18:35:00,
2013-01-22 12:44:00,0.1,-10.5,30.30,WNW,298,3.0,12.0,60,0.00,CLR,,0.00,WeatherDisplay:10.37,2013-01-22 18:44:00,
2013-01-22 12:49:00,0.9,-9.4,30.30,WNW,290,2.0,10.0,61,0.00,CLR,,0.00,WeatherDisplay:10.37,2013-01-22 18:49:00,
2013-01-22 12:54:00,0.7,-10.6,30.30,WNW,284,3.0,8.0,58,0.00,CLR,,0.00,WeatherDisplay:10.37,2013-01-22 18:54:00,
2013-01-22 12:59:00,1.3,-9.3,30.29,West,278,3.0,7.0,60,0.00,CLR,,0.00,WeatherDisplay:10.37,2013-01-22 18:59:00,
2013-01-22 13:04:00,1.7,-9.3,30.29,West,278,3.0,5.0,59,0.00,CLR,,0.00,WeatherDisplay:10.37,2013-01-22 19:04:00,
2013-01-22 13:10:00,1.5,-9.9,30.29,WNW,289,3.0,7.0,58,0.00,CLR,,0.00,WeatherDisplay:10.37,2013-01-22 19:10:00,
2013-01-22 13:19:00,2.0,-9.1,30.28,WNW,284,2.0,7.0,59,0.00,CLR,,0.00,WeatherDisplay:10.37,2013-01-22 19:19:00,
2013-01-22 13:25:00,2.5,-7.9,30.28,West,274,2.0,9.0,61,0.00,CLR,,0.00,WeatherDisplay:10.37,2013-01-22 19:25:00,
2013-01-22 13:34:00,2.2,-10.0,30.28,WNW,296,3.0,9.0,56,0.00,CLR,,0.00,WeatherDisplay:10.37,2013-01-22 19:34:00,
2013-01-22 13:40:00,2.2,-9.2,30.28,WNW,294,3.0,10.0,58,0.00,CLR,,0.00,WeatherDisplay:10.37,2013-01-22 19:40:00,
2013-01-22 13:49:00,2.8,-8.7,30.28,West,274,2.0,6.0,58,0.00,CLR,,0.00,WeatherDisplay:10.37,2013-01-22 19:49:00,
2013-01-22 13:54:00,2.6,-9.2,30.28,WNW,288,5.0,9.0,57,0.00,CLR,,0.00,WeatherDisplay:10.37,2013-01-22 19:54:00,
2013-01-22 13:59:00,2.8,-8.6,30.29,WNW,289,2.0,6.0,58,0.00,CLR,,0.00,WeatherDisplay:10.37,2013-01-22 19:59:00,
2013-01-22 14:05:00,3.3,-7.8,30.29,West,281,2.0,6.0,59,0.00,CLR,,0.00,WeatherDisplay:10.37,2013-01-22 20:05:00,
2013-01-22 14:09:00,3.7,-7.5,30.29,West,277,2.0,6.0,59,0.00,CLR,,0.00,WeatherDisplay:10.37,2013-01-22 20:09:00,
2013-01-22 14:14:00,3.4,-8.8,30.29,WNW,282,6.0,9.0,56,0.00,CLR,,0.00,WeatherDisplay:10.37,2013-01-22 20:14:00,
2013-01-22 14:19:00,3.2,-9.0,30.29,WNW,286,2.0,8.0,56,0.00,CLR,,0.00,WeatherDisplay:10.37,2013-01-22 20:19:00,
2013-01-22 14:25:00,3.4,-8.4,30.29,West,277,3.0,6.0,57,0.00,CLR,,0.00,WeatherDisplay:10.37,2013-01-22 20:25:00,
2013-01-22 14:30:00,3.4,-8.8,30.29,WNW,297,5.0,9.0,56,0.00,CLR,,0.00,WeatherDisplay:10.37,2013-01-22 20:30:00,
2013-01-22 14:35:00,3.2,-9.4,30.29,NW,309,5.0,9.0,55,0.00,CLR,,0.00,WeatherDisplay:10.37,2013-01-22 20:35:00,
2013-01-22 14:40:00,3.4,-8.8,30.29,NW,309,6.0,10.0,56,0.00,CLR,,0.00,WeatherDisplay:10.37,2013-01-22 20:40:00,
2013-01-22 14:44:00,3.4,-8.4,30.29,WNW,297,3.0,9.0,57,0.00,CLR,,0.00,WeatherDisplay:10.37,2013-01-22 20:44:00,
2013-01-22 14:50:00,3.9,-8.3,30.29,WNW,295,5.0,7.0,56,0.00,CLR,,0.00,WeatherDisplay:10.37,2013-01-22 20:50:00,
2013-01-22 14:54:00,3.7,-8.9,30.29,WNW,299,3.0,8.0,55,0.00,CLR,,0.00,WeatherDisplay:10.37,2013-01-22 20:54:00,
2013-01-22 15:00:00,3.9,-8.0,30.29,WNW,295,3.0,8.0,57,0.00,CLR,,0.00,WeatherDisplay:10.37,2013-01-22 21:00:00,
2013-01-22 15:05:00,4.3,-8.0,30.29,WNW,284,3.0,10.0,56,0.00,CLR,,0.00,WeatherDisplay:10.37,2013-01-22 21:05:00,
2013-01-22 15:10:00,4.3,-8.0,30.29,WNW,288,5.0,8.0,56,0.00,CLR,,0.00,WeatherDisplay:10.37,2013-01-22 21:10:00,
2013-01-22 15:15:00,4.1,-8.5,30.30,WNW,298,3.0,9.0,55,0.00,CLR,,0.00,WeatherDisplay:10.37,2013-01-22 21:15:00,
2013-01-22 15:20:00,4.1,-9.3,30.30,WNW,289,6.0,12.0,53,0.00,CLR,,0.00,WeatherDisplay:10.37,2013-01-22 21:20:00,
2013-01-22 15:25:00,4.1,-8.9,30.30,WNW,295,3.0,8.0,54,0.00,CLR,,0.00,WeatherDisplay:10.37,2013-01-22 21:25:00,
2013-01-22 15:30:00,4.3,-8.0,30.29,WNW,302,3.0,12.0,56,0.00,CLR,,0.00,WeatherDisplay:10.37,2013-01-22 21:30:00,
2013-01-22 15:35:00,4.5,-9.3,30.29,WNW,298,7.0,12.0,52,0.00,CLR,,0.00,WeatherDisplay:10.37,2013-01-22 21:35:00,
2013-01-22 15:40:00,4.3,-8.7,30.29,WNW,298,5.0,12.0,54,0.00,CLR,,0.00,WeatherDisplay:10.37,2013-01-22 21:40:00,
2013-01-22 15:45:00,4.3,-9.1,30.29,WNW,300,5.0,7.0,53,0.00,CLR,,0.00,WeatherDisplay:10.37,2013-01-22 21:45:00,
2013-01-22 15:50:00,4.5,-8.1,30.29,WNW,302,5.0,8.0,55,0.00,CLR,,0.00,WeatherDisplay:10.37,2013-01-22 21:50:00,
2013-01-22 15:55:00,4.5,-8.1,30.29,WNW,299,5.0,8.0,55,0.00,CLR,,0.00,WeatherDisplay:10.37,2013-01-22 21:55:00,
2013-01-22 16:00:00,4.5,-8.5,30.29,WNW,300,5.0,8.0,54,0.00,CLR,,0.00,WeatherDisplay:10.37,2013-01-22 22:00:00,
2013-01-22 16:05:00,4.5,-7.8,30.29,WNW,301,3.0,9.0,56,0.00,CLR,,0.00,WeatherDisplay:10.37,2013-01-22 22:05:00,
2013-01-22 16:10:00,4.5,-7.8,30.29,WNW,300,3.0,12.0,56,0.00,CLR,,0.00,WeatherDisplay:10.37,2013-01-22 22:10:00,
2013-01-22 16:15:00,4.3,-8.3,30.29,WNW,298,6.0,10.0,55,0.00,CLR,,0.00,WeatherDisplay:10.37,2013-01-22 22:15:00,
2013-01-22 16:20:00,4.3,-8.3,30.29,WNW,298,5.0,8.0,55,0.00,CLR,,0.00,WeatherDisplay:10.37,2013-01-22 22:20:00,
2013-01-22 16:25:00,4.1,-8.5,30.29,WNW,297,2.0,10.0,55,0.00,CLR,,0.00,WeatherDisplay:10.37,2013-01-22 22:25:00,
2013-01-22 16:30:00,4.1,-8.9,30.29,WNW,300,6.0,9.0,54,0.00,CLR,,0.00,WeatherDisplay:10.37,2013-01-22 22:30:00,
2013-01-22 16:40:00,4.1,-8.1,30.29,WNW,296,2.0,12.0,56,0.00,CLR,,0.00,WeatherDisplay:10.37,2013-01-22 22:40:00,
2013-01-22 16:45:00,4.1,-8.1,30.29,WNW,298,5.0,9.0,56,0.00,CLR,,0.00,WeatherDisplay:10.37,2013-01-22 22:45:00,
2013-01-22 16:50:00,4.1,-8.1,30.29,WNW,300,2.0,7.0,56,0.00,CLR,,0.00,WeatherDisplay:10.37,2013-01-22 22:50:00,
2013-01-22 16:55:00,4.1,-7.8,30.29,WNW,296,3.0,6.0,57,0.00,CLR,,0.00,WeatherDisplay:10.37,2013-01-22 22:55:00,
2013-01-22 17:00:00,3.9,-8.0,30.29,NW,305,3.0,7.0,57,0.00,CLR,,0.00,WeatherDisplay:10.37,2013-01-22 23:00:00,
2013-01-22 17:05:00,3.9,-8.3,30.29,NW,322,3.0,7.0,56,0.00,CLR,,0.00,WeatherDisplay:10.37,2013-01-22 23:05:00,
2013-01-22 17:10:00,3.9,-8.3,30.29,NW,323,3.0,6.0,56,0.00,CLR,,0.00,WeatherDisplay:10.37,2013-01-22 23:10:00,
2013-01-22 17:15:00,3.6,-7.9,30.29,NW,322,2.0,5.0,58,0.00,CLR,,0.00,WeatherDisplay:10.37,2013-01-22 23:15:00,
2013-01-22 17:20:00,3.4,-8.1,30.29,NNW,333,2.0,6.0,58,0.00,CLR,,0.00,WeatherDisplay:10.37,2013-01-22 23:20:00,
2013-01-22 17:25:00,3.2,-7.9,30.29,NNW,327,3.0,5.0,59,0.00,CLR,,0.00,WeatherDisplay:10.37,2013-01-22 23:25:00,
2013-01-22 17:30:00,3.2,-8.3,30.30,NW,326,2.0,5.0,58,0.00,CLR,,0.00,WeatherDisplay:10.37,2013-01-22 23:30:00,
2013-01-22 17:35:00,3.1,-8.4,30.30,NNW,337,2.0,4.0,58,0.00,CLR,,0.00,WeatherDisplay:10.37,2013-01-22 23:35:00,
2013-01-22 17:40:00,3.0,-8.5,30.30,NNW,341,1.0,5.0,58,0.00,CLR,,0.00,WeatherDisplay:10.37,2013-01-22 23:40:00,
2013-01-22 17:45:00,2.8,-8.7,30.30,NNW,335,2.0,6.0,58,0.00,CLR,,0.00,WeatherDisplay:10.37,2013-01-22 23:45:00,
2013-01-22 17:50:00,2.8,-8.3,30.30,NNW,331,1.0,4.0,59,0.00,CLR,,0.00,WeatherDisplay:10.37,2013-01-22 23:50:00,
2013-01-22 17:55:00,2.6,-8.5,30.30,NNW,339,2.0,6.0,59,0.00,CLR,,0.00,WeatherDisplay:10.37,2013-01-22 23:55:00,
2013-01-22 18:00:00,2.6,-8.5,30.30,NNW,338,2.0,5.0,59,0.00,CLR,,0.00,WeatherDisplay:10.37,2013-01-23 00:00:00,
2013-01-22 18:05:00,2.4,-8.7,30.30,NNW,336,1.0,3.0,59,0.00,CLR,,0.00,WeatherDisplay:10.37,2013-01-23 00:05:00,
2013-01-22 18:10:00,2.4,-8.3,30.30,NNW,337,1.0,4.0,60,0.00,CLR,,0.00,WeatherDisplay:10.37,2013-01-23 00:10:00,
2013-01-22 18:15:00,2.4,-8.7,30.30,NNW,337,1.0,3.0,59,0.00,CLR,,0.00,WeatherDisplay:10.37,2013-01-23 00:15:00,
2013-01-22 18:20:00,2.2,-8.9,30.30,NNW,332,2.0,3.0,59,0.00,CLR,,0.00,WeatherDisplay:10.37,2013-01-23 00:20:00,
2013-01-22 18:25:00,2.2,-8.9,30.30,NNW,332,0.0,3.0,59,0.00,CLR,,0.00,WeatherDisplay:10.37,2013-01-23 00:25:00,
2013-01-22 18:30:00,2.2,-8.9,30.29,NNW,336,0.0,4.0,59,0.00,CLR,,0.00,WeatherDisplay:10.37,2013-01-23 00:30:00,
2013-01-22 18:35:00,2.2,-8.9,30.29,NNW,337,0.0,4.0,59,0.00,CLR,,0.00,WeatherDisplay:10.37,2013-01-23 00:35:00,
2013-01-22 18:40:00,2.0,-9.1,30.29,NNW,335,0.0,4.0,59,0.00,CLR,,0.00,WeatherDisplay:10.37,2013-01-23 00:40:00,
2013-01-22 18:45:00,2.0,-8.7,30.29,NNW,334,1.0,3.0,60,0.00,CLR,,0.00,WeatherDisplay:10.37,2013-01-23 00:45:00,
2013-01-22 18:50:00,2.0,-8.7,30.29,NNW,335,0.0,2.0,60,0.00,CLR,,0.00,WeatherDisplay:10.37,2013-01-23 00:50:00,
2013-01-22 18:55:00,2.0,-8.7,30.29,NNW,334,0.0,4.0,60,0.00,CLR,,0.00,WeatherDisplay:10.37,2013-01-23 00:55:00,
2013-01-22 19:00:00,2.2,-8.2,30.29,NNW,333,1.0,3.0,61,0.00,CLR,,0.00,WeatherDisplay:10.37,2013-01-23 01:00:00,
2013-01-22 19:05:00,2.2,-8.9,30.29,NNW,328,1.0,6.0,59,0.00,CLR,,0.00,WeatherDisplay:10.37,2013-01-23 01:05:00,
2013-01-22 19:10:00,2.2,-8.9,30.29,NNW,327,1.0,5.0,59,0.00,CLR,,0.00,WeatherDisplay:10.37,2013-01-23 01:10:00,
2013-01-22 19:15:00,2.2,-8.9,30.29,NNW,339,1.0,5.0,59,0.00,CLR,,0.00,WeatherDisplay:10.37,2013-01-23 01:15:00,
2013-01-22 19:20:00,2.2,-8.5,30.29,NNW,346,2.0,5.0,60,0.00,CLR,,0.00,WeatherDisplay:10.37,2013-01-23 01:20:00,
2013-01-22 19:30:00,2.4,-8.7,30.29,NW,318,1.0,5.0,59,0.00,CLR,,0.00,WeatherDisplay:10.37,2013-01-23 01:30:00,
2013-01-22 19:35:00,2.4,-8.7,30.29,NNW,328,1.0,5.0,59,0.00,CLR,,0.00,WeatherDisplay:10.37,2013-01-23 01:35:00,
2013-01-22 19:45:00,2.2,-8.9,30.29,NW,326,2.0,5.0,59,0.00,CLR,,0.00,WeatherDisplay:10.37,2013-01-23 01:45:00,
2013-01-22 19:50:00,2.2,-8.9,30.29,NNW,328,1.0,5.0,59,0.00,CLR,,0.00,WeatherDisplay:10.37,2013-01-23 01:50:00,
2013-01-22 19:55:00,2.2,-8.9,30.29,NNW,333,2.0,4.0,59,0.00,CLR,,0.00,WeatherDisplay:10.37,2013-01-23 01:55:00,
2013-01-22 20:00:00,2.0,-9.1,30.29,NNW,334,2.0,4.0,59,0.00,CLR,,0.00,WeatherDisplay:10.37,2013-01-23 02:00:00,
2013-01-22 20:05:00,2.0,-8.7,30.29,NNW,338,0.0,5.0,60,0.00,CLR,,0.00,WeatherDisplay:10.37,2013-01-23 02:05:00,
2013-01-22 20:10:00,2.0,-8.4,30.29,NNW,341,3.0,5.0,61,0.00,CLR,,0.00,WeatherDisplay:10.37,2013-01-23 02:10:00,
2013-01-22 20:15:00,2.0,-8.7,30.29,NNW,332,1.0,4.0,60,0.00,CLR,,0.00,WeatherDisplay:10.37,2013-01-23 02:15:00,
2013-01-22 20:20:00,2.0,-8.7,30.29,NW,323,0.0,3.0,60,0.00,CLR,,0.00,WeatherDisplay:10.37,2013-01-23 02:20:00,
2013-01-22 20:25:00,2.0,-8.7,30.29,NW,318,3.0,4.0,60,0.00,CLR,,0.00,WeatherDisplay:10.37,2013-01-23 02:25:00,
2013-01-22 20:30:00,2.2,-8.5,30.28,NW,316,1.0,4.0,60,0.00,CLR,,0.00,WeatherDisplay:10.37,2013-01-23 02:30:00,
2013-01-22 20:35:00,2.3,-8.1,30.28,NW,315,0.0,4.0,61,0.00,CLR,,0.00,WeatherDisplay:10.37,2013-01-23 02:35:00,
2013-01-22 20:40:00,2.4,-8.3,30.28,NW,315,1.0,3.0,60,0.00,CLR,,0.00,WeatherDisplay:10.37,2013-01-23 02:40:00,
2013-01-22 20:45:00,2.4,-8.7,30.28,NW,315,2.0,4.0,59,0.00,CLR,,0.00,WeatherDisplay:10.37,2013-01-23 02:45:00,
2013-01-22 20:50:00,2.4,-8.3,30.28,NW,315,1.0,3.0,60,0.00,CLR,,0.00,WeatherDisplay:10.37,2013-01-23 02:50:00,
2013-01-22 20:55:00,2.5,-8.2,30.28,NW,315,0.0,4.0,60,0.00,CLR,,0.00,WeatherDisplay:10.37,2013-01-23 02:55:00,
2013-01-22 21:00:00,2.4,-8.3,30.28,NW,317,1.0,3.0,60,0.00,CLR,,0.00,WeatherDisplay:10.37,2013-01-23 03:00:00,
2013-01-22 21:05:00,2.6,-8.5,30.28,NW,315,1.0,4.0,59,0.00,CLR,,0.00,WeatherDisplay:10.37,2013-01-23 03:05:00,
2013-01-22 21:09:00,2.6,-8.1,30.28,NW,315,0.0,2.0,60,0.00,CLR,,0.00,WeatherDisplay:10.37,2013-01-23 03:09:00,
2013-01-22 21:15:00,2.4,-8.0,30.28,NW,315,0.0,2.0,61,0.00,CLR,,0.00,WeatherDisplay:10.37,2013-01-23 03:15:00,
2013-01-22 21:20:00,2.4,-8.0,30.28,NW,315,0.0,0.0,61,0.00,CLR,,0.00,WeatherDisplay:10.37,2013-01-23 03:20:00,
2013-01-22 21:24:00,2.4,-7.7,30.28,NW,315,0.0,2.0,62,0.00,CLR,,0.00,WeatherDisplay:10.37,2013-01-23 03:24:00,
2013-01-22 21:29:00,2.2,-8.2,30.29,NW,315,0.0,2.0,61,0.00,CLR,,0.00,WeatherDisplay:10.37,2013-01-23 03:29:00,
2013-01-22 21:34:00,2.2,-8.2,30.29,NW,315,0.0,2.0,61,0.00,CLR,,0.00,WeatherDisplay:10.37,2013-01-23 03:34:00,
2013-01-22 21:39:00,2.2,-7.9,30.29,NW,315,0.0,1.0,62,0.00,CLR,,0.00,WeatherDisplay:10.37,2013-01-23 03:39:00,
2013-01-22 21:44:00,2.0,-7.7,30.29,NW,315,0.0,0.0,63,0.00,CLR,,0.00,WeatherDisplay:10.37,2013-01-23 03:44:00,
2013-01-22 21:49:00,1.8,-7.6,30.29,NW,315,0.0,0.0,64,0.00,CLR,,0.00,WeatherDisplay:10.37,2013-01-23 03:49:00,
2013-01-22 21:54:00,1.7,-7.7,30.29,NW,315,0.0,0.0,64,0.00,CLR,,0.00,WeatherDisplay:10.37,2013-01-23 03:54:00,
2013-01-22 21:59:00,1.5,-7.6,30.29,NW,314,0.0,0.0,65,0.00,CLR,,0.00,WeatherDisplay:10.37,2013-01-23 03:59:00,
2013-01-22 22:04:00,1.3,-7.4,30.29,NW,314,0.0,0.0,66,0.00,CLR,,0.00,WeatherDisplay:10.37,2013-01-23 04:04:00,
2013-01-22 22:09:00,1.1,-7.6,30.29,NW,315,0.0,0.0,66,0.00,CLR,,0.00,WeatherDisplay:10.37,2013-01-23 04:09:00,
2013-01-22 22:14:00,0.9,-7.5,30.29,NW,315,0.0,0.0,67,0.00,CLR,,0.00,WeatherDisplay:10.37,2013-01-23 04:14:00,
2013-01-22 22:19:00,0.7,-8.0,30.29,NW,315,0.0,0.0,66,0.00,CLR,,0.00,WeatherDisplay:10.37,2013-01-23 04:19:00,
2013-01-22 22:24:00,0.7,-7.7,30.29,NW,315,0.0,0.0,67,0.00,CLR,,0.00,WeatherDisplay:10.37,2013-01-23 04:24:00,
2013-01-22 22:29:00,0.5,-7.6,30.30,NW,315,0.0,0.0,68,0.00,CLR,,0.00,WeatherDisplay:10.37,2013-01-23 04:29:00,
2013-01-22 22:34:00,0.5,-7.6,30.30,NW,315,0.0,0.0,68,0.00,CLR,,0.00,WeatherDisplay:10.37,2013-01-23 04:34:00,
2013-01-22 22:39:00,0.5,-7.3,30.30,NW,315,0.0,1.0,69,0.00,CLR,,0.00,WeatherDisplay:10.37,2013-01-23 04:39:00,
2013-01-22 22:45:00,0.5,-7.3,30.29,NW,315,0.0,0.0,69,0.00,CLR,,0.00,WeatherDisplay:10.37,2013-01-23 04:45:00,
2013-01-22 22:54:00,0.5,-7.0,30.29,NW,315,0.0,0.0,70,0.00,CLR,,0.00,WeatherDisplay:10.37,2013-01-23 04:54:00,
2013-01-22 22:59:00,0.5,-7.0,30.29,NW,315,0.0,0.0,70,0.00,CLR,,0.00,WeatherDisplay:10.37,2013-01-23 04:59:00,
2013-01-22 23:04:00,0.5,-7.0,30.29,NW,314,0.0,0.0,70,0.00,CLR,,0.00,WeatherDisplay:10.37,2013-01-23 05:04:00,
2013-01-22 23:09:00,0.5,-6.7,30.29,NW,314,0.0,0.0,71,0.00,CLR,,0.00,WeatherDisplay:10.37,2013-01-23 05:09:00,
2013-01-22 23:14:00,0.5,-6.7,30.28,NW,315,0.0,0.0,71,0.00,CLR,,0.00,WeatherDisplay:10.37,2013-01-23 05:14:00,
2013-01-22 23:19:00,0.3,-6.9,30.28,NW,315,0.0,0.0,71,0.00,CLR,,0.00,WeatherDisplay:10.37,2013-01-23 05:19:00,
2013-01-22 23:25:00,0.3,-6.9,30.28,NW,315,0.0,0.0,71,0.00,CLR,,0.00,WeatherDisplay:10.37,2013-01-23 05:25:00,
2013-01-22 23:30:00,0.3,-6.6,30.28,NW,315,0.0,1.0,72,0.00,CLR,,0.00,WeatherDisplay:10.37,2013-01-23 05:30:00,
2013-01-22 23:35:00,0.3,-6.6,30.28,NW,315,0.0,0.0,72,0.00,CLR,,0.00,WeatherDisplay:10.37,2013-01-23 05:35:00,
2013-01-22 23:40:00,0.3,-6.3,30.28,NW,315,0.0,0.0,73,0.00,CLR,,0.00,WeatherDisplay:10.37,2013-01-23 05:40:00,
2013-01-22 23:45:00,0.5,-5.8,30.28,NW,315,0.0,0.0,74,0.00,CLR,,0.00,WeatherDisplay:10.37,2013-01-23 05:45:00,
2013-01-22 23:50:00,0.7,-5.6,30.28,NW,315,0.0,1.0,74,0.00,CLR,,0.00,WeatherDisplay:10.37,2013-01-23 05:50:00,
2013-01-22 23:55:00,0.9,-5.5,30.28,NW,315,0.0,2.0,74,0.00,CLR,,0.00,WeatherDisplay:10.37,2013-01-23 05:55:00,